Startpagina
METAR-TAF:

METAR-TAF

Vliegvelden :

Calcutta, India

breedte: 22-39N, lengte: 088-27E, hoogte: 4 m

Actueel weer

Dit bericht is 13 minuten geleden gemaakt, om 21:30 UTC
Weinig wind
Temperatuur 14°C
Vochtigheid 88%
Druk 1012 hPa
Zicht: 2000 m
nevel

METAR: VECC 102130Z 00000KT 2000 BR NSC 14/12 Q1012 NOSIG

Tijdstip: 03:13 (21:43 UTC)

Verwachting

Dit bericht is 1 uur en het 43 minuten geleden gemaakt, om 20:00 UTC
Verwachting geldig van 10 om 21 UTC tot 11 om 06 UTC
Wind kt uit het noorden
Zicht: 2000 m
nevel
Wijzigt naar
van 10 om 23 UTC tot 11 om 01 UTC
Zicht: 1400 m
nevel
Wijzigt naar
van 11 om 02 UTC tot 11 om 04 UTC
Wind 5 kt uit het noorden
Zicht: 2300 m
nevel
Wijzigt naar
van 11 om 05 UTC tot 11 om 06 UTC
Zicht: 3300 m
Heiigheid

TAF: VECC 102000Z 1021/1106 00000KT 2000 BR NSC BECMG 1023/1101 1400 BR BECMG 1102/1104 35005KT 2300 BR BECMG 1105/1106 3300 HZ

Waarnemingen en weersverwachtingen van meer dan 4000 vliegvelden (METAR en TAF).

De beschikbare stations zijn de gele en rode punten op de kaart.

Ga met uw muis naar het station om de naam te zien.

Klik dan om waarnemingen en weersverwachtingen te zien.

kaart wijzigen: klik op de groene knoppen met een zwart kruis om in te zoomen, op de groene knop met een streepje om uit te zoomen of op de groene pijlen voor aangrenzende kaarten.


METAR-TAF: